Zapata, TX

22:35 CDT le 26 septembre 2016 (GMT -0500)
Zapata | | Change Station

Alt. 423 ft 26.97 °N, 99.25 °W | Updated 20 minutes ago

Drizzle
Bruine
76 ° F
Paraît 76 ° F
N
4
Vent Variable Vent de NNO

Aujourd'hui
Haut(e) -- | Bas -- ° F
--% Risque de précip.
Hier
Haut(e) -- | Bas -- ° F
Precip. -- pouce
Pression 30.04 pouce
Visibilité 10.0 Miles terrestres
Nuages Nuages épars 2800 ft
Nuageux 3300 ft
Couvert 8000 ft
Point de rosée 75 ° F
Humidité 96%
Précipitations 0.60 pouce
Profondeur de la couche neigeuse Non disponible.
7:27 AM 7:28 PM
Lune descendante, 14% visible
METAR KAPY 270315Z AUTO 34003KT 10SM DZ SCT028 BKN033 OVC080 24/23 A3004 RMK AO2 T02450238
Pression 30.04 pouce
Visibilité 10.0 Miles terrestres
Nuages Nuages épars 2800 ft
Nuageux 3300 ft
Couvert 8000 ft
Point de rosée 75 ° F
Humidité 96%
Précipitations 0.60 pouce
Profondeur de la couche neigeuse Non disponible.
7:27 AM 7:28 PM
Lune descendante, 14% visible
METAR KAPY 270315Z AUTO 34003KT 10SM DZ SCT028 BKN033 OVC080 24/23 A3004 RMK AO2 T02450238

10-Day Weather Forecast

Almanac

Astronomie

Sep. 26, 2016 Lever Coucher
Temps réel
Crépuscule civil
Crépuscule nautique
Crépuscule astronomique
Lune
Durée de lumière visible
Longueur du jour
Tomorrow will be .
, % of the Moon is Illuminated

Extrêmes aujourd'hui

State Highs State Lows

Community

WunderPhotos

Upload Photos

1,942,028 Photos téléchargées !

WunderBlog® & News

Nearby

Qualité de l'air

  Qualité de l'air Indice de la qualité de l'air Polluant
Not available.

Épaisseur de neige

Station Depth Altitude

Activité sismique

Ville Distance Mag. Time & Date
Minimum magnitude displayed is 2.5.

Températures des eaux côtières

Lieu Température

Stations

Stations météo à proximité

Emplacement de la station Température Refroidissement éolien Point de rosée Humidité Vent Precip. Alt. Mise à jour Type
                   

Watches & Warnings

There are currently no watches in effect.